createdAt,value
2019-04-21T00:00:55.441Z,15.55
2019-04-21T00:03:23.040Z,15.55
2019-04-21T00:06:06.077Z,15.47
2019-04-21T00:08:37.529Z,15.43
2019-04-21T00:11:09.479Z,15.39
2019-04-21T00:13:29.031Z,15.32
2019-04-21T00:15:53.455Z,15.23
2019-04-21T00:18:40.901Z,15.07
2019-04-21T00:21:12.213Z,14.86
2019-04-21T00:23:49.934Z,14.82
2019-04-21T00:26:22.640Z,14.95
2019-04-21T00:28:59.438Z,14.92
2019-04-21T00:31:19.311Z,14.93
2019-04-21T00:33:37.308Z,14.88
2019-04-21T00:36:10.787Z,14.84
2019-04-21T00:39:09.933Z,14.75
2019-04-21T00:41:26.101Z,14.72
2019-04-21T00:43:49.094Z,14.75
2019-04-21T00:46:19.004Z,14.76
2019-04-21T00:48:53.536Z,14.65
2019-04-21T00:51:36.084Z,14.64
2019-04-21T00:54:04.012Z,14.50
2019-04-21T00:56:34.122Z,14.39
2019-04-21T00:58:59.856Z,14.17
2019-04-21T01:01:31.264Z,14.17
2019-04-21T01:04:03.918Z,13.92
2019-04-21T01:06:38.228Z,13.67
2019-04-21T01:08:59.056Z,13.42
2019-04-21T01:11:33.280Z,13.48
2019-04-21T01:14:05.806Z,13.62
2019-04-21T01:16:33.459Z,13.58
2019-04-21T01:19:01.935Z,13.44
2019-04-21T01:21:14.194Z,13.36
2019-04-21T01:23:42.380Z,13.33
2019-04-21T01:26:22.679Z,13.44
2019-04-21T01:29:00.070Z,13.45
2019-04-21T01:31:30.575Z,13.22
2019-04-21T01:34:02.854Z,12.95
2019-04-21T01:36:33.370Z,12.74
2019-04-21T01:39:05.344Z,12.80
2019-04-21T01:41:35.106Z,12.91
2019-04-21T01:44:01.507Z,12.89
2019-04-21T01:46:30.907Z,12.93
2019-04-21T01:48:59.306Z,12.89
2019-04-21T01:51:29.578Z,12.74
2019-04-21T01:54:12.613Z,12.66
2019-04-21T01:56:40.255Z,12.47
2019-04-21T01:59:00.858Z,12.38
2019-04-21T02:01:39.093Z,12.45
2019-04-21T02:04:13.992Z,12.53
2019-04-21T02:06:39.217Z,12.48
2019-04-21T02:09:13.062Z,12.24
2019-04-21T02:11:43.349Z,12.09
2019-04-21T02:14:19.693Z,11.69
2019-04-21T02:16:43.669Z,11.62
2019-04-21T02:19:04.466Z,11.79
2019-04-21T02:21:39.275Z,11.70
2019-04-21T02:24:23.881Z,11.73
2019-04-21T02:26:45.787Z,11.86
2019-04-21T02:29:15.542Z,11.86
2019-04-21T02:32:00.326Z,11.79
2019-04-21T02:34:23.869Z,11.71
2019-04-21T02:37:06.535Z,11.73
2019-04-21T02:39:29.631Z,11.70
2019-04-21T02:41:54.668Z,11.78
2019-04-21T02:44:26.462Z,11.57
2019-04-21T02:46:50.606Z,11.43
2019-04-21T02:49:38.146Z,11.48
2019-04-21T02:59:33.384Z,11.11
2019-04-21T03:09:44.390Z,10.84
2019-04-21T03:12:20.206Z,10.90
2019-04-21T03:19:55.502Z,11.20
2019-04-21T03:22:20.981Z,11.08
2019-04-21T03:27:31.110Z,10.89
2019-04-21T03:29:55.507Z,10.79
2019-04-21T03:32:50.657Z,10.79
2019-04-21T03:37:29.087Z,10.97
2019-04-21T03:50:05.250Z,10.43
2019-04-21T03:55:41.413Z,10.36
2019-04-21T03:58:05.099Z,10.32
2019-04-21T04:00:40.080Z,10.18
2019-04-21T04:03:39.520Z,10.26
2019-04-21T04:11:04.626Z,10.14
2019-04-21T04:13:26.559Z,10.11
2019-04-21T04:15:59.818Z,10.15
2019-04-21T04:18:44.574Z,10.07
2019-04-21T04:20:54.943Z,10.06
2019-04-21T04:23:31.028Z,10.10
2019-04-21T04:25:59.144Z,9.97
2019-04-21T04:28:27.824Z,9.91
2019-04-21T04:31:05.082Z,9.92
2019-04-21T04:33:46.091Z,10.00
2019-04-21T04:38:34.402Z,9.98
2019-04-21T04:41:24.461Z,10.05
2019-04-21T04:43:39.515Z,10.10
2019-04-21T04:48:35.359Z,10.18
2019-04-21T04:51:18.156Z,10.09
2019-04-21T04:53:47.030Z,10.00
2019-04-21T04:56:11.679Z,10.07
2019-04-21T04:59:09.896Z,10.20
2019-04-21T05:01:24.638Z,10.26
2019-04-21T05:09:02.884Z,10.13
2019-04-21T05:14:02.879Z,10.07
2019-04-21T05:16:41.046Z,10.00
2019-04-21T05:19:06.396Z,10.02
2019-04-21T05:23:49.856Z,10.07
2019-04-21T05:26:13.770Z,10.10
2019-04-21T05:28:42.039Z,10.08
2019-04-21T05:31:32.322Z,10.11
2019-04-21T05:34:03.112Z,10.22
2019-04-21T05:36:40.768Z,10.27
2019-04-21T05:39:12.016Z,10.38
2019-04-21T05:41:31.443Z,10.47
2019-04-21T05:44:12.836Z,10.52
2019-04-21T05:46:53.401Z,10.46
2019-04-21T05:49:22.200Z,10.43
2019-04-21T05:51:55.982Z,10.51
2019-04-21T05:54:39.693Z,10.53
2019-04-21T05:57:03.796Z,10.61
2019-04-21T05:59:35.772Z,10.72
2019-04-21T06:02:16.560Z,10.81
2019-04-21T06:04:51.792Z,10.96
2019-04-21T06:07:13.507Z,11.12
2019-04-21T06:09:39.565Z,11.21
2019-04-21T06:12:05.890Z,11.30
2019-04-21T06:14:42.207Z,11.36
2019-04-21T06:17:08.086Z,11.43
2019-04-21T06:19:43.219Z,11.50
2019-04-21T06:22:06.061Z,11.57
2019-04-21T06:24:42.229Z,11.64
2019-04-21T06:27:10.765Z,11.68
2019-04-21T06:29:39.362Z,11.74
2019-04-21T06:34:54.603Z,11.87
2019-04-21T06:37:34.746Z,11.91
2019-04-21T06:40:03.281Z,11.95
2019-04-21T06:42:09.095Z,12.00
2019-04-21T06:44:48.360Z,12.07
2019-04-21T06:47:24.658Z,12.12
2019-04-21T06:49:45.667Z,12.18
2019-04-21T06:52:29.897Z,12.24
2019-04-21T06:54:46.893Z,12.29
2019-04-21T06:57:18.193Z,12.34
2019-04-21T06:59:38.684Z,12.41
2019-04-21T07:02:30.647Z,12.47
2019-04-21T07:04:51.730Z,12.51
2019-04-21T07:07:14.401Z,12.58
2019-04-21T07:09:53.093Z,12.63
2019-04-21T07:12:13.766Z,12.69
2019-04-21T07:14:49.455Z,12.74
2019-04-21T07:17:17.878Z,12.79
2019-04-21T07:19:51.066Z,12.85
2019-04-21T07:22:20.333Z,10.44
2019-04-21T07:24:47.918Z,12.94
2019-04-21T07:27:22.194Z,13.05
2019-04-21T07:29:55.030Z,13.32
2019-04-21T07:32:15.240Z,13.35
2019-04-21T07:34:51.583Z,13.43
2019-04-21T07:37:20.904Z,13.49
2019-04-21T07:39:48.175Z,13.50
2019-04-21T07:42:14.710Z,13.57
2019-04-21T07:44:41.872Z,13.65
2019-04-21T07:47:20.218Z,13.64
2019-04-21T07:49:57.477Z,13.76
2019-04-21T07:52:34.970Z,14.10
2019-04-21T07:55:14.224Z,14.23
2019-04-21T07:57:23.441Z,14.55
2019-04-21T08:02:29.326Z,14.70
2019-04-21T08:05:10.271Z,14.59
2019-04-21T08:07:41.834Z,14.89
2019-04-21T08:09:57.101Z,15.20
2019-04-21T08:12:24.621Z,15.30
2019-04-21T08:15:13.937Z,15.38
2019-04-21T08:17:30.749Z,15.28
2019-04-21T08:19:59.060Z,15.15
2019-04-21T08:22:38.193Z,15.23
2019-04-21T08:25:04.421Z,15.42
2019-04-21T08:27:36.759Z,15.28
2019-04-21T08:29:58.279Z,15.18
2019-04-21T08:32:44.426Z,15.39
2019-04-21T08:35:22.798Z,15.60
2019-04-21T08:37:30.711Z,15.66
2019-04-21T08:42:35.214Z,16.05
2019-04-21T08:45:07.659Z,15.98
2019-04-21T08:47:33.704Z,15.90
2019-04-21T08:50:03.517Z,16.10
2019-04-21T08:55:29.751Z,16.21
2019-04-21T08:58:08.440Z,16.22
2019-04-21T09:00:38.848Z,16.36
2019-04-21T09:03:14.646Z,16.74
2019-04-21T09:05:45.495Z,16.75
2019-04-21T09:08:15.299Z,16.47
2019-04-21T09:10:39.722Z,16.22
2019-04-21T09:13:10.225Z,16.38
2019-04-21T09:15:42.953Z,16.32
2019-04-21T09:18:08.499Z,16.40
2019-04-21T09:20:49.728Z,16.54
2019-04-21T09:23:13.557Z,16.78
2019-04-21T09:25:46.767Z,16.86
2019-04-21T09:28:14.624Z,16.84
2019-04-21T09:30:26.362Z,16.61
2019-04-21T09:32:58.174Z,16.42
2019-04-21T09:35:25.036Z,16.22
2019-04-21T09:37:59.993Z,16.37
2019-04-21T09:40:30.114Z,16.51
2019-04-21T09:43:01.065Z,16.80
2019-04-21T09:45:24.459Z,16.88
2019-04-21T09:48:01.030Z,16.75
2019-04-21T09:50:24.277Z,16.88
2019-04-21T09:52:58.105Z,16.92
2019-04-21T09:55:30.270Z,17.08
2019-04-21T09:57:57.706Z,17.00
2019-04-21T10:00:27.275Z,17.03
2019-04-21T10:03:01.764Z,17.29
2019-04-21T10:05:25.187Z,17.37
2019-04-21T10:07:55.251Z,17.72
2019-04-21T10:10:25.176Z,17.66
2019-04-21T10:12:54.031Z,17.69
2019-04-21T10:15:24.607Z,17.84
2019-04-21T10:17:54.342Z,17.84
2019-04-21T10:20:24.399Z,17.90
2019-04-21T10:22:53.190Z,17.92
2019-04-21T10:25:22.822Z,17.91
2019-04-21T10:27:51.239Z,18.16
2019-04-21T10:30:22.528Z,18.27
2019-04-21T10:32:52.364Z,18.15
2019-04-21T10:35:21.856Z,18.05
2019-04-21T10:38:05.783Z,18.04
2019-04-21T10:40:21.402Z,18.02
2019-04-21T10:42:50.113Z,18.11
2019-04-21T10:45:19.073Z,17.97
2019-04-21T10:47:47.514Z,18.04
2019-04-21T10:50:16.385Z,16.21
2019-04-21T10:53:04.919Z,18.42
2019-04-21T10:55:50.565Z,18.32
2019-04-21T10:58:11.082Z,18.30
2019-04-21T11:00:42.100Z,18.63
2019-04-21T11:03:31.056Z,18.58
2019-04-21T11:06:04.009Z,18.62
2019-04-21T11:08:37.674Z,19.00
2019-04-21T11:11:03.775Z,18.83
2019-04-21T11:13:32.653Z,18.62
2019-04-21T11:16:01.405Z,18.56
2019-04-21T11:18:30.047Z,18.58
2019-04-21T11:21:00.737Z,18.63
2019-04-21T11:23:29.267Z,18.74
2019-04-21T11:25:58.095Z,18.65
2019-04-21T11:28:27.239Z,18.72
2019-04-21T11:30:57.208Z,19.11
2019-04-21T11:33:27.139Z,19.21
2019-04-21T11:35:55.790Z,19.09
2019-04-21T11:38:29.154Z,19.00
2019-04-21T11:40:56.084Z,18.77
2019-04-21T11:43:24.463Z,18.67
2019-04-21T11:45:52.955Z,19.48
2019-04-21T11:48:30.280Z,19.71
2019-04-21T11:50:59.265Z,19.58
2019-04-21T11:53:28.737Z,19.56
2019-04-21T11:55:58.598Z,19.59
2019-04-21T11:58:27.851Z,19.53
2019-04-21T12:01:03.835Z,19.32
2019-04-21T12:03:33.529Z,19.35
2019-04-21T12:06:03.583Z,19.61
2019-04-21T12:08:40.185Z,19.83
2019-04-21T12:11:03.295Z,19.77
2019-04-21T12:13:32.249Z,19.69
2019-04-21T12:16:01.112Z,19.77
2019-04-21T12:18:30.520Z,20.33
2019-04-21T12:20:59.635Z,20.43
2019-04-21T12:23:30.204Z,20.92
2019-04-21T12:25:59.156Z,21.15
2019-04-21T12:28:28.070Z,21.59
2019-04-21T12:30:57.774Z,21.98
2019-04-21T12:33:47.710Z,22.44
2019-04-21T12:36:17.745Z,22.96
2019-04-21T12:38:50.941Z,23.36
2019-04-21T12:41:16.587Z,23.75
2019-04-21T12:43:45.023Z,24.00
2019-04-21T12:46:13.988Z,24.07
2019-04-21T12:48:42.493Z,24.22
2019-04-21T12:51:12.247Z,24.24
2019-04-21T12:53:41.615Z,24.65
2019-04-21T12:56:11.594Z,25.00
2019-04-21T12:58:41.425Z,24.74
2019-04-21T13:01:10.256Z,24.73
2019-04-21T13:03:39.727Z,24.99
2019-04-21T13:06:09.783Z,25.17
2019-04-21T13:08:45.670Z,25.48
2019-04-21T13:11:09.546Z,25.29
2019-04-21T13:13:39.876Z,25.39
2019-04-21T13:16:09.582Z,25.56
2019-04-21T13:18:39.471Z,25.86
2019-04-21T13:21:08.069Z,26.00
2019-04-21T13:23:36.981Z,26.09
2019-04-21T13:26:06.523Z,26.02
2019-04-21T13:28:35.831Z,26.19
2019-04-21T13:31:04.542Z,26.02
2019-04-21T13:33:33.381Z,25.95
2019-04-21T13:36:04.820Z,25.77
2019-04-21T13:38:42.188Z,25.52
2019-04-21T13:41:23.077Z,25.59
2019-04-21T13:43:37.115Z,25.60
2019-04-21T13:46:05.949Z,25.96
2019-04-21T13:48:34.758Z,26.15
2019-04-21T13:51:04.907Z,26.06
2019-04-21T13:53:34.951Z,25.76
2019-04-21T13:56:04.721Z,25.84
2019-04-21T13:58:34.488Z,26.09
2019-04-21T14:01:03.560Z,26.08
2019-04-21T14:03:33.308Z,25.89
2019-04-21T14:06:02.543Z,25.65
2019-04-21T14:08:31.329Z,25.58
2019-04-21T14:10:59.875Z,25.87
2019-04-21T14:13:28.283Z,25.84
2019-04-21T14:15:57.849Z,25.84
2019-04-21T14:18:26.883Z,25.86
2019-04-21T14:20:55.627Z,25.55
2019-04-21T14:23:32.578Z,25.61
2019-04-21T14:25:55.474Z,25.82
2019-04-21T14:28:24.186Z,25.49
2019-04-21T14:30:52.687Z,25.32
2019-04-21T14:33:23.491Z,25.31
2019-04-21T14:35:52.622Z,25.14
2019-04-21T14:38:22.479Z,25.21
2019-04-21T14:40:52.434Z,25.12
2019-04-21T14:43:21.687Z,25.11
2019-04-21T14:45:52.814Z,25.17
2019-04-21T14:48:23.271Z,25.22
2019-04-21T14:51:06.574Z,25.09
2019-04-21T14:53:56.318Z,25.03
2019-04-21T14:56:27.003Z,24.93
2019-04-21T14:58:57.653Z,24.82
2019-04-21T15:01:26.187Z,24.66
2019-04-21T15:03:55.470Z,24.79
2019-04-21T15:06:25.338Z,24.83
2019-04-21T15:08:55.421Z,24.85
2019-04-21T15:11:24.258Z,24.79
2019-04-21T15:13:53.633Z,24.74
2019-04-21T15:16:22.836Z,24.74
2019-04-21T15:18:52.687Z,24.71
2019-04-21T15:21:21.656Z,24.60
2019-04-21T15:23:50.707Z,24.48
2019-04-21T15:26:20.050Z,24.37
2019-04-21T15:28:48.953Z,24.40
2019-04-21T15:31:23.896Z,24.28
2019-04-21T15:33:47.538Z,24.26
2019-04-21T15:36:16.684Z,24.23
2019-04-21T15:38:45.816Z,24.21
2019-04-21T15:41:14.525Z,24.25
2019-04-21T15:43:43.072Z,24.16
2019-04-21T15:46:12.895Z,24.21
2019-04-21T15:48:41.643Z,24.21
2019-04-21T15:51:11.062Z,24.21
2019-04-21T15:53:41.809Z,24.20
2019-04-21T15:56:31.060Z,24.21
2019-04-21T15:59:04.360Z,24.27
2019-04-21T16:01:37.000Z,24.14
2019-04-21T16:04:06.563Z,24.22
2019-04-21T16:06:35.636Z,24.25
2019-04-21T16:09:08.389Z,24.22
2019-04-21T16:11:37.894Z,24.33
2019-04-21T16:14:08.021Z,24.38
2019-04-21T16:16:36.580Z,24.43
2019-04-21T16:19:06.155Z,24.41
2019-04-21T16:21:38.321Z,24.34
2019-04-21T16:24:06.626Z,24.37
2019-04-21T16:26:35.281Z,24.39
2019-04-21T16:29:04.926Z,24.18
2019-04-21T16:31:34.281Z,24.30
2019-04-21T16:34:03.234Z,24.30
2019-04-21T16:36:31.888Z,24.37
2019-04-21T16:39:01.748Z,24.44
2019-04-21T16:41:30.299Z,24.43
2019-04-21T16:43:58.988Z,24.52
2019-04-21T16:46:27.533Z,24.54
2019-04-21T16:48:55.994Z,24.54
2019-04-21T16:51:24.479Z,24.56
2019-04-21T16:53:55.717Z,24.55
2019-04-21T16:56:26.924Z,24.59
2019-04-21T16:59:00.883Z,24.63
2019-04-21T17:01:31.796Z,24.54
2019-04-21T17:04:00.388Z,24.49
2019-04-21T17:06:29.190Z,24.40
2019-04-21T17:08:59.002Z,24.13
2019-04-21T17:11:33.138Z,24.13
2019-04-21T17:13:58.222Z,24.16
2019-04-21T17:16:50.821Z,24.11
2019-04-21T17:19:06.584Z,24.11
2019-04-21T17:21:28.062Z,24.13
2019-04-21T17:23:56.908Z,24.10
2019-04-21T17:26:26.793Z,24.06
2019-04-21T17:28:56.598Z,24.10
2019-04-21T17:31:26.535Z,23.96
2019-04-21T17:34:04.985Z,23.88
2019-04-21T17:36:25.576Z,23.70
2019-04-21T17:38:55.609Z,23.58
2019-04-21T17:41:31.838Z,23.43
2019-04-21T17:43:56.041Z,23.36
2019-04-21T17:46:33.340Z,23.21
2019-04-21T17:48:54.949Z,23.09
2019-04-21T17:51:35.189Z,23.02
2019-04-21T17:54:16.493Z,22.92
2019-04-21T17:57:18.360Z,22.87
2019-04-21T17:59:41.173Z,22.79
2019-04-21T18:01:59.274Z,22.64
2019-04-21T18:04:30.639Z,22.54
2019-04-21T18:07:02.104Z,22.41
2019-04-21T18:09:44.162Z,22.32
2019-04-21T18:12:08.057Z,22.26
2019-04-21T18:14:22.076Z,22.18
2019-04-21T18:16:51.643Z,22.09
2019-04-21T18:19:26.099Z,22.01
2019-04-21T18:22:07.669Z,21.91
2019-04-21T18:24:47.997Z,21.81
2019-04-21T18:27:09.700Z,21.58
2019-04-21T18:29:40.068Z,21.50
2019-04-21T18:32:08.633Z,21.40
2019-04-21T18:34:49.881Z,21.35
2019-04-21T18:37:35.012Z,21.27
2019-04-21T18:40:06.811Z,21.19
2019-04-21T18:42:55.543Z,21.10
2019-04-21T18:48:10.909Z,20.84
2019-04-21T18:50:48.854Z,20.78
2019-04-21T18:53:44.214Z,20.72
2019-04-21T18:56:00.341Z,20.67
2019-04-21T18:58:24.290Z,20.57
2019-04-21T19:00:56.917Z,20.34
2019-04-21T19:03:35.164Z,20.21
2019-04-21T19:06:03.957Z,20.09
2019-04-21T19:08:46.570Z,20.00
2019-04-21T19:11:22.286Z,19.94
2019-04-21T19:14:12.706Z,19.93
2019-04-21T19:19:23.023Z,19.81
2019-04-21T19:21:31.086Z,19.70
2019-04-21T19:24:15.650Z,19.68
2019-04-21T19:26:39.820Z,19.66
2019-04-21T19:29:16.629Z,19.47
2019-04-21T19:31:39.949Z,19.42
2019-04-21T19:33:55.797Z,19.38
2019-04-21T19:36:17.333Z,19.36
2019-04-21T19:38:58.221Z,19.23
2019-04-21T19:41:31.911Z,19.14
2019-04-21T19:44:10.844Z,19.17
2019-04-21T19:46:33.138Z,19.11
2019-04-21T19:49:13.761Z,19.03
2019-04-21T19:51:33.017Z,18.99
2019-04-21T19:53:56.095Z,18.93
2019-04-21T19:56:18.571Z,18.74
2019-04-21T19:58:47.870Z,18.68
2019-04-21T20:01:17.493Z,18.71
2019-04-21T20:03:49.855Z,18.58
2019-04-21T20:06:33.146Z,18.54
2019-04-21T20:09:04.113Z,18.50
2019-04-21T20:11:36.105Z,18.46
2019-04-21T20:14:32.615Z,18.30
2019-04-21T20:16:38.983Z,18.27
2019-04-21T20:18:55.329Z,18.20
2019-04-21T20:21:17.260Z,18.16
2019-04-21T20:23:46.645Z,17.98
2019-04-21T20:26:17.049Z,17.95
2019-04-21T20:28:57.112Z,17.52
2019-04-21T20:31:29.240Z,17.32
2019-04-21T20:34:28.281Z,17.23
2019-04-21T20:36:56.725Z,17.19
2019-04-21T20:39:16.652Z,17.03
2019-04-21T20:41:46.771Z,16.88
2019-04-21T20:44:28.156Z,16.88
2019-04-21T20:46:55.515Z,16.84
2019-04-21T20:49:19.051Z,16.63
2019-04-21T20:52:08.115Z,16.47
2019-04-21T20:54:27.120Z,16.61
2019-04-21T20:56:58.410Z,16.72
2019-04-21T20:59:25.117Z,16.77
2019-04-21T21:01:59.316Z,16.68
2019-04-21T21:04:21.799Z,16.55
2019-04-21T21:07:04.531Z,16.58
2019-04-21T21:09:27.163Z,16.41
2019-04-21T21:12:13.429Z,16.20
2019-04-21T21:14:29.276Z,16.07
2019-04-21T21:17:26.645Z,16.18
2019-04-21T21:19:38.104Z,16.30
2019-04-21T21:21:56.671Z,16.34
2019-04-21T21:24:39.332Z,16.39
2019-04-21T21:27:04.064Z,16.28
2019-04-21T21:29:31.584Z,16.28
2019-04-21T21:32:12.863Z,16.37
2019-04-21T21:34:38.823Z,16.30
2019-04-21T21:37:01.806Z,16.27
2019-04-21T21:39:36.221Z,16.31
2019-04-21T21:41:48.503Z,16.30
2019-04-21T21:44:18.292Z,16.04
2019-04-21T21:46:58.921Z,15.93
2019-04-21T21:49:29.428Z,15.75
2019-04-21T21:51:56.936Z,15.64
2019-04-21T21:54:13.972Z,15.53
2019-04-21T21:56:42.667Z,15.52
2019-04-21T21:59:16.437Z,15.67
2019-04-21T22:01:47.001Z,15.73
2019-04-21T22:04:18.899Z,15.75
2019-04-21T22:06:52.961Z,15.64
2019-04-21T22:09:14.567Z,15.51
2019-04-21T22:11:44.367Z,15.49
2019-04-21T22:14:22.913Z,15.41
2019-04-21T22:16:57.520Z,15.46
2019-04-21T22:19:34.036Z,15.45
2019-04-21T22:21:59.476Z,15.49
2019-04-21T22:24:29.302Z,15.49
2019-04-21T22:26:44.934Z,15.51
2019-04-21T22:29:13.909Z,15.46
2019-04-21T22:31:44.580Z,15.40
2019-04-21T22:34:15.801Z,15.28
2019-04-21T22:36:53.834Z,15.11
2019-04-21T22:39:28.254Z,15.05
2019-04-21T22:41:46.613Z,14.76
2019-04-21T22:44:16.504Z,14.80
2019-04-21T22:46:54.887Z,14.72
2019-04-21T22:49:16.947Z,14.63
2019-04-21T22:51:49.686Z,14.56
2019-04-21T22:54:20.835Z,14.53
2019-04-21T22:56:56.533Z,14.31
2019-04-21T22:59:21.016Z,14.26
2019-04-21T23:01:48.831Z,14.34
2019-04-21T23:04:17.773Z,14.19
2019-04-21T23:06:48.816Z,14.16
2019-04-21T23:09:16.965Z,14.18
2019-04-21T23:11:50.551Z,14.06
2019-04-21T23:14:17.481Z,13.99
2019-04-21T23:16:49.065Z,13.92
2019-04-21T23:19:32.130Z,13.91
2019-04-21T23:22:04.256Z,13.75
2019-04-21T23:24:40.111Z,13.67
2019-04-21T23:26:59.768Z,13.74
2019-04-21T23:29:48.332Z,13.64
2019-04-21T23:32:03.014Z,13.68
2019-04-21T23:34:25.089Z,13.63
2019-04-21T23:36:59.050Z,13.61
2019-04-21T23:39:23.733Z,13.62
2019-04-21T23:41:52.868Z,13.54
2019-04-21T23:44:20.231Z,13.63
2019-04-21T23:46:54.875Z,13.61
2019-04-21T23:49:34.582Z,13.57
2019-04-21T23:51:58.381Z,13.44
2019-04-21T23:54:19.565Z,13.47
2019-04-21T23:56:49.257Z,13.53
2019-04-21T23:59:18.126Z,13.55
